sensor_id;sensor_type;location;lat;lon;timestamp;P1;durP1;ratioP1;P2;durP2;ratioP2
38972;SDS011;25333;50.762;4.470;2022-09-27T00:02:21;1.63;;;0.60;;
38972;SDS011;25333;50.762;4.470;2022-09-27T00:04:47;2.10;;;0.60;;
38972;SDS011;25333;50.762;4.470;2022-09-27T00:07:12;2.40;;;0.30;;
38972;SDS011;25333;50.762;4.470;2022-09-27T00:09:38;2.38;;;0.40;;
38972;SDS011;25333;50.762;4.470;2022-09-27T00:12:04;4.90;;;0.57;;
38972;SDS011;25333;50.762;4.470;2022-09-27T00:14:29;1.42;;;0.20;;
38972;SDS011;25333;50.762;4.470;2022-09-27T00:16:55;1.40;;;0.20;;
38972;SDS011;25333;50.762;4.470;2022-09-27T00:19:21;2.53;;;0.30;;
38972;SDS011;25333;50.762;4.470;2022-09-27T00:21:48;2.72;;;0.30;;
38972;SDS011;25333;50.762;4.470;2022-09-27T00:24:15;1.15;;;0.20;;
38972;SDS011;25333;50.762;4.470;2022-09-27T00:26:45;3.22;;;0.50;;
38972;SDS011;25333;50.762;4.470;2022-09-27T00:29:12;5.13;;;0.47;;
38972;SDS011;25333;50.762;4.470;2022-09-27T00:31:39;2.20;;;0.20;;
38972;SDS011;25333;50.762;4.470;2022-09-27T00:34:05;2.60;;;0.10;;
38972;SDS011;25333;50.762;4.470;2022-09-27T00:36:31;1.30;;;0.40;;
38972;SDS011;25333;50.762;4.470;2022-09-27T00:38:57;1.40;;;0.20;;
38972;SDS011;25333;50.762;4.470;2022-09-27T00:41:25;1.98;;;0.30;;
38972;SDS011;25333;50.762;4.470;2022-09-27T00:46:21;4.13;;;0.50;;
38972;SDS011;25333;50.762;4.470;2022-09-27T00:48:47;1.92;;;0.30;;
38972;SDS011;25333;50.762;4.470;2022-09-27T00:51:24;1.65;;;0.28;;
38972;SDS011;25333;50.762;4.470;2022-09-27T00:53:50;2.50;;;0.17;;
38972;SDS011;25333;50.762;4.470;2022-09-27T00:56:18;5.22;;;0.52;;
38972;SDS011;25333;50.762;4.470;2022-09-27T00:58:50;1.73;;;0.13;;
38972;SDS011;25333;50.762;4.470;2022-09-27T01:01:21;1.38;;;0.20;;
38972;SDS011;25333;50.762;4.470;2022-09-27T01:03:48;3.10;;;0.30;;
38972;SDS011;25333;50.762;4.470;2022-09-27T01:06:24;2.75;;;0.25;;
38972;SDS011;25333;50.762;4.470;2022-09-27T01:08:50;1.30;;;0.20;;
38972;SDS011;25333;50.762;4.470;2022-09-27T01:16:45;4.30;;;0.35;;
38972;SDS011;25333;50.762;4.470;2022-09-27T01:30:26;1.98;;;0.40;;
38972;SDS011;25333;50.762;4.470;2022-09-27T01:35:41;1.15;;;0.30;;
38972;SDS011;25333;50.762;4.470;2022-09-27T01:38:11;1.70;;;0.50;;
38972;SDS011;25333;50.762;4.470;2022-09-27T01:43:23;0.83;;;0.10;;
38972;SDS011;25333;50.762;4.470;2022-09-27T01:46:04;4.70;;;0.45;;
38972;SDS011;25333;50.762;4.470;2022-09-27T01:48:36;0.63;;;0.03;;
38972;SDS011;25333;50.762;4.470;2022-09-27T01:51:18;1.50;;;0.15;;
38972;SDS011;25333;50.762;4.470;2022-09-27T01:53:52;2.13;;;0.32;;
38972;SDS011;25333;50.762;4.470;2022-09-27T01:56:31;0.40;;;0.10;;
38972;SDS011;25333;50.762;4.470;2022-09-27T01:59:11;2.40;;;0.28;;
38972;SDS011;25333;50.762;4.470;2022-09-27T02:01:53;1.80;;;0.40;;
38972;SDS011;25333;50.762;4.470;2022-09-27T02:04:23;1.65;;;0.15;;
38972;SDS011;25333;50.762;4.470;2022-09-27T02:06:54;1.38;;;0.10;;
38972;SDS011;25333;50.762;4.470;2022-09-27T02:09:28;0.73;;;0.10;;
38972;SDS011;25333;50.762;4.470;2022-09-27T02:12:01;2.78;;;0.15;;
38972;SDS011;25333;50.762;4.470;2022-09-27T02:14:44;1.40;;;0.20;;
38972;SDS011;25333;50.762;4.470;2022-09-27T02:17:22;1.50;;;0.10;;
38972;SDS011;25333;50.762;4.470;2022-09-27T02:25:42;2.00;;;0.30;;
38972;SDS011;25333;50.762;4.470;2022-09-27T02:28:24;2.25;;;0.30;;
38972;SDS011;25333;50.762;4.470;2022-09-27T02:30:53;1.40;;;0.10;;
38972;SDS011;25333;50.762;4.470;2022-09-27T02:33:21;1.40;;;0.20;;
38972;SDS011;25333;50.762;4.470;2022-09-27T02:35:50;0.65;;;0.10;;
38972;SDS011;25333;50.762;4.470;2022-09-27T02:38:16;1.00;;;0.20;;
38972;SDS011;25333;50.762;4.470;2022-09-27T02:40:43;1.75;;;0.35;;
38972;SDS011;25333;50.762;4.470;2022-09-27T02:43:11;1.00;;;0.20;;
38972;SDS011;25333;50.762;4.470;2022-09-27T03:05:10;1.90;;;0.30;;
38972;SDS011;25333;50.762;4.470;2022-09-27T03:07:41;1.45;;;0.17;;
38972;SDS011;25333;50.762;4.470;2022-09-27T03:10:10;1.20;;;0.25;;
38972;SDS011;25333;50.762;4.470;2022-09-27T03:12:41;1.73;;;0.10;;
38972;SDS011;25333;50.762;4.470;2022-09-27T03:15:07;1.02;;;0.32;;
38972;SDS011;25333;50.762;4.470;2022-09-27T03:17:34;1.10;;;0.13;;
38972;SDS011;25333;50.762;4.470;2022-09-27T03:20:00;1.17;;;0.13;;
38972;SDS011;25333;50.762;4.470;2022-09-27T03:22:26;2.22;;;0.20;;
38972;SDS011;25333;50.762;4.470;2022-09-27T03:24:51;1.90;;;0.20;;
38972;SDS011;25333;50.762;4.470;2022-09-27T03:27:17;1.47;;;0.10;;
38972;SDS011;25333;50.762;4.470;2022-09-27T03:29:42;1.35;;;0.17;;
38972;SDS011;25333;50.762;4.470;2022-09-27T03:32:08;2.13;;;0.53;;
38972;SDS011;25333;50.762;4.470;2022-09-27T03:34:34;1.10;;;0.22;;
38972;SDS011;25333;50.762;4.470;2022-09-27T03:36:59;2.70;;;0.20;;
38972;SDS011;25333;50.762;4.470;2022-09-27T03:39:26;3.23;;;0.20;;
38972;SDS011;25333;50.762;4.470;2022-09-27T03:41:51;0.77;;;0.20;;
38972;SDS011;25333;50.762;4.470;2022-09-27T03:44:17;1.03;;;0.30;;
38972;SDS011;25333;50.762;4.470;2022-09-27T03:46:43;3.13;;;0.40;;
38972;SDS011;25333;50.762;4.470;2022-09-27T03:49:08;0.90;;;0.10;;
38972;SDS011;25333;50.762;4.470;2022-09-27T03:51:34;0.85;;;0.10;;
38972;SDS011;25333;50.762;4.470;2022-09-27T03:53:59;3.80;;;0.33;;
38972;SDS011;25333;50.762;4.470;2022-09-27T03:56:25;1.80;;;0.30;;
38972;SDS011;25333;50.762;4.470;2022-09-27T03:58:51;1.30;;;0.20;;
38972;SDS011;25333;50.762;4.470;2022-09-27T04:01:16;2.03;;;0.33;;
38972;SDS011;25333;50.762;4.470;2022-09-27T04:03:42;1.70;;;0.43;;
38972;SDS011;25333;50.762;4.470;2022-09-27T04:06:08;1.83;;;0.40;;
38972;SDS011;25333;50.762;4.470;2022-09-27T04:08:33;3.70;;;0.40;;
38972;SDS011;25333;50.762;4.470;2022-09-27T04:10:59;1.03;;;0.30;;
38972;SDS011;25333;50.762;4.470;2022-09-27T04:13:24;2.33;;;0.45;;
38972;SDS011;25333;50.762;4.470;2022-09-27T04:15:50;2.08;;;0.40;;
38972;SDS011;25333;50.762;4.470;2022-09-27T04:18:16;2.08;;;0.50;;
38972;SDS011;25333;50.762;4.470;2022-09-27T04:20:41;2.40;;;0.50;;
38972;SDS011;25333;50.762;4.470;2022-09-27T04:23:07;2.20;;;0.32;;
38972;SDS011;25333;50.762;4.470;2022-09-27T04:25:33;2.73;;;0.40;;
38972;SDS011;25333;50.762;4.470;2022-09-27T04:27:58;1.35;;;0.38;;
38972;SDS011;25333;50.762;4.470;2022-09-27T04:30:25;1.55;;;0.38;;
38972;SDS011;25333;50.762;4.470;2022-09-27T04:32:51;1.35;;;0.30;;
38972;SDS011;25333;50.762;4.470;2022-09-27T04:35:17;3.00;;;0.80;;
38972;SDS011;25333;50.762;4.470;2022-09-27T04:38:01;1.20;;;0.50;;
38972;SDS011;25333;50.762;4.470;2022-09-27T04:40:27;3.08;;;0.80;;
38972;SDS011;25333;50.762;4.470;2022-09-27T04:42:53;2.93;;;0.63;;
38972;SDS011;25333;50.762;4.470;2022-09-27T04:45:19;1.55;;;0.80;;
38972;SDS011;25333;50.762;4.470;2022-09-27T04:47:45;1.27;;;0.57;;
38972;SDS011;25333;50.762;4.470;2022-09-27T04:50:12;1.92;;;0.95;;
38972;SDS011;25333;50.762;4.470;2022-09-27T04:52:39;3.65;;;1.00;;
38972;SDS011;25333;50.762;4.470;2022-09-27T04:55:05;1.20;;;0.70;;
38972;SDS011;25333;50.762;4.470;2022-09-27T04:57:32;2.05;;;0.90;;
38972;SDS011;25333;50.762;4.470;2022-09-27T04:59:57;1.92;;;0.93;;
38972;SDS011;25333;50.762;4.470;2022-09-27T05:02:26;1.55;;;0.95;;
38972;SDS011;25333;50.762;4.470;2022-09-27T05:04:55;2.83;;;1.00;;
38972;SDS011;25333;50.762;4.470;2022-09-27T05:07:24;2.13;;;1.13;;
38972;SDS011;25333;50.762;4.470;2022-09-27T05:09:50;2.03;;;1.05;;
38972;SDS011;25333;50.762;4.470;2022-09-27T05:12:16;3.42;;;1.77;;
38972;SDS011;25333;50.762;4.470;2022-09-27T05:14:43;4.20;;;1.23;;
38972;SDS011;25333;50.762;4.470;2022-09-27T05:17:09;2.00;;;1.10;;
38972;SDS011;25333;50.762;4.470;2022-09-27T05:19:34;2.50;;;1.27;;
38972;SDS011;25333;50.762;4.470;2022-09-27T05:22:02;2.97;;;1.30;;
38972;SDS011;25333;50.762;4.470;2022-09-27T05:24:28;3.23;;;1.27;;
38972;SDS011;25333;50.762;4.470;2022-09-27T05:26:56;2.97;;;1.00;;
38972;SDS011;25333;50.762;4.470;2022-09-27T05:29:21;3.03;;;1.05;;
38972;SDS011;25333;50.762;4.470;2022-09-27T05:31:47;1.80;;;1.10;;
38972;SDS011;25333;50.762;4.470;2022-09-27T05:34:13;2.17;;;0.90;;
38972;SDS011;25333;50.762;4.470;2022-09-27T05:36:39;3.17;;;1.02;;
38972;SDS011;25333;50.762;4.470;2022-09-27T05:39:04;4.27;;;1.20;;
38972;SDS011;25333;50.762;4.470;2022-09-27T05:41:31;2.03;;;0.90;;
38972;SDS011;25333;50.762;4.470;2022-09-27T05:43:56;2.58;;;1.00;;
38972;SDS011;25333;50.762;4.470;2022-09-27T05:46:23;4.03;;;1.27;;
38972;SDS011;25333;50.762;4.470;2022-09-27T05:48:49;7.28;;;1.15;;
38972;SDS011;25333;50.762;4.470;2022-09-27T05:51:14;3.93;;;1.43;;
38972;SDS011;25333;50.762;4.470;2022-09-27T05:53:40;3.17;;;0.90;;
38972;SDS011;25333;50.762;4.470;2022-09-27T05:56:06;1.90;;;0.90;;
38972;SDS011;25333;50.762;4.470;2022-09-27T05:58:32;4.32;;;1.30;;
38972;SDS011;25333;50.762;4.470;2022-09-27T06:00:58;3.13;;;1.10;;
38972;SDS011;25333;50.762;4.470;2022-09-27T06:03:24;2.53;;;0.90;;
38972;SDS011;25333;50.762;4.470;2022-09-27T06:05:49;1.70;;;0.70;;
38972;SDS011;25333;50.762;4.470;2022-09-27T06:08:15;3.58;;;1.40;;
38972;SDS011;25333;50.762;4.470;2022-09-27T06:10:41;3.73;;;1.20;;
38972;SDS011;25333;50.762;4.470;2022-09-27T06:13:10;3.88;;;1.15;;
38972;SDS011;25333;50.762;4.470;2022-09-27T06:15:37;3.50;;;1.42;;
38972;SDS011;25333;50.762;4.470;2022-09-27T06:18:05;4.63;;;1.47;;
38972;SDS011;25333;50.762;4.470;2022-09-27T06:20:35;3.28;;;1.02;;
38972;SDS011;25333;50.762;4.470;2022-09-27T06:23:12;3.93;;;1.40;;
38972;SDS011;25333;50.762;4.470;2022-09-27T06:25:40;2.97;;;1.20;;
38972;SDS011;25333;50.762;4.470;2022-09-27T06:28:06;2.55;;;1.13;;
38972;SDS011;25333;50.762;4.470;2022-09-27T06:30:33;2.33;;;1.27;;
38972;SDS011;25333;50.762;4.470;2022-09-27T06:33:04;1.70;;;0.88;;
38972;SDS011;25333;50.762;4.470;2022-09-27T06:35:30;2.35;;;1.00;;
38972;SDS011;25333;50.762;4.470;2022-09-27T06:37:56;5.07;;;1.57;;
38972;SDS011;25333;50.762;4.470;2022-09-27T06:40:22;2.63;;;1.10;;
38972;SDS011;25333;50.762;4.470;2022-09-27T06:42:51;4.00;;;1.30;;
38972;SDS011;25333;50.762;4.470;2022-09-27T06:45:17;2.45;;;1.23;;
38972;SDS011;25333;50.762;4.470;2022-09-27T06:47:43;4.07;;;1.02;;
38972;SDS011;25333;50.762;4.470;2022-09-27T06:50:08;2.70;;;1.20;;
38972;SDS011;25333;50.762;4.470;2022-09-27T06:52:34;2.43;;;1.07;;
38972;SDS011;25333;50.762;4.470;2022-09-27T06:55:01;3.13;;;1.30;;
38972;SDS011;25333;50.762;4.470;2022-09-27T06:57:29;2.30;;;1.00;;
38972;SDS011;25333;50.762;4.470;2022-09-27T07:00:13;2.47;;;1.50;;
38972;SDS011;25333;50.762;4.470;2022-09-27T07:02:48;2.25;;;1.17;;
38972;SDS011;25333;50.762;4.470;2022-09-27T07:05:14;4.32;;;1.52;;
38972;SDS011;25333;50.762;4.470;2022-09-27T07:07:41;3.08;;;1.58;;
38972;SDS011;25333;50.762;4.470;2022-09-27T07:10:08;4.20;;;1.58;;
38972;SDS011;25333;50.762;4.470;2022-09-27T07:12:35;5.60;;;1.88;;
38972;SDS011;25333;50.762;4.470;2022-09-27T07:15:01;6.23;;;1.40;;
38972;SDS011;25333;50.762;4.470;2022-09-27T07:17:28;3.08;;;1.80;;
38972;SDS011;25333;50.762;4.470;2022-09-27T07:19:53;4.10;;;2.10;;
38972;SDS011;25333;50.762;4.470;2022-09-27T07:22:20;6.75;;;1.70;;
38972;SDS011;25333;50.762;4.470;2022-09-27T07:24:45;4.87;;;1.80;;
38972;SDS011;25333;50.762;4.470;2022-09-27T07:27:11;4.15;;;1.80;;
38972;SDS011;25333;50.762;4.470;2022-09-27T07:29:37;4.00;;;2.03;;
38972;SDS011;25333;50.762;4.470;2022-09-27T07:32:03;6.10;;;1.90;;
38972;SDS011;25333;50.762;4.470;2022-09-27T07:34:29;2.88;;;1.90;;
38972;SDS011;25333;50.762;4.470;2022-09-27T07:36:59;4.23;;;2.20;;
38972;SDS011;25333;50.762;4.470;2022-09-27T07:39:27;4.20;;;1.67;;
38972;SDS011;25333;50.762;4.470;2022-09-27T07:41:53;3.67;;;1.73;;
38972;SDS011;25333;50.762;4.470;2022-09-27T07:44:19;4.67;;;2.27;;
38972;SDS011;25333;50.762;4.470;2022-09-27T07:46:44;3.53;;;2.08;;
38972;SDS011;25333;50.762;4.470;2022-09-27T07:49:10;3.95;;;1.95;;
38972;SDS011;25333;50.762;4.470;2022-09-27T07:51:36;3.23;;;1.87;;
38972;SDS011;25333;50.762;4.470;2022-09-27T07:54:01;5.70;;;2.07;;
38972;SDS011;25333;50.762;4.470;2022-09-27T07:56:27;3.20;;;2.00;;
38972;SDS011;25333;50.762;4.470;2022-09-27T07:58:53;3.47;;;1.60;;
38972;SDS011;25333;50.762;4.470;2022-09-27T08:01:18;4.93;;;1.58;;
38972;SDS011;25333;50.762;4.470;2022-09-27T08:03:44;3.47;;;1.63;;
38972;SDS011;25333;50.762;4.470;2022-09-27T08:06:10;3.23;;;1.70;;
38972;SDS011;25333;50.762;4.470;2022-09-27T08:08:36;2.78;;;1.60;;
38972;SDS011;25333;50.762;4.470;2022-09-27T08:11:20;3.40;;;1.40;;
38972;SDS011;25333;50.762;4.470;2022-09-27T08:13:46;2.60;;;1.40;;
38972;SDS011;25333;50.762;4.470;2022-09-27T08:16:13;2.30;;;1.58;;
38972;SDS011;25333;50.762;4.470;2022-09-27T08:18:39;2.58;;;1.67;;
38972;SDS011;25333;50.762;4.470;2022-09-27T08:21:05;3.70;;;1.67;;
38972;SDS011;25333;50.762;4.470;2022-09-27T08:23:31;4.22;;;2.05;;
38972;SDS011;25333;50.762;4.470;2022-09-27T08:25:56;3.43;;;1.60;;
38972;SDS011;25333;50.762;4.470;2022-09-27T08:28:23;6.50;;;1.73;;
38972;SDS011;25333;50.762;4.470;2022-09-27T08:30:52;3.35;;;1.60;;
38972;SDS011;25333;50.762;4.470;2022-09-27T08:33:18;2.72;;;1.15;;
38972;SDS011;25333;50.762;4.470;2022-09-27T08:35:44;4.20;;;1.65;;
38972;SDS011;25333;50.762;4.470;2022-09-27T08:38:10;2.70;;;1.13;;
38972;SDS011;25333;50.762;4.470;2022-09-27T08:45:59;2.70;;;1.05;;
38972;SDS011;25333;50.762;4.470;2022-09-27T08:48:39;3.50;;;1.30;;
38972;SDS011;25333;50.762;4.470;2022-09-27T08:51:08;3.00;;;1.23;;
38972;SDS011;25333;50.762;4.470;2022-09-27T08:53:38;3.87;;;1.10;;
38972;SDS011;25333;50.762;4.470;2022-09-27T08:56:10;3.35;;;1.10;;
38972;SDS011;25333;50.762;4.470;2022-09-27T09:01:15;6.15;;;1.35;;
38972;SDS011;25333;50.762;4.470;2022-09-27T09:03:45;1.95;;;0.75;;
38972;SDS011;25333;50.762;4.470;2022-09-27T09:15:15;2.25;;;0.70;;
38972;SDS011;25333;50.762;4.470;2022-09-27T09:27:06;1.42;;;0.80;;
38972;SDS011;25333;50.762;4.470;2022-09-27T09:29:58;1.85;;;0.52;;
38972;SDS011;25333;50.762;4.470;2022-09-27T09:35:28;2.72;;;0.40;;
38972;SDS011;25333;50.762;4.470;2022-09-27T09:38:09;1.92;;;0.50;;
38972;SDS011;25333;50.762;4.470;2022-09-27T09:40:55;1.52;;;0.50;;
38972;SDS011;25333;50.762;4.470;2022-09-27T09:46:24;1.70;;;0.40;;
38972;SDS011;25333;50.762;4.470;2022-09-27T09:49:01;1.30;;;0.40;;
38972;SDS011;25333;50.762;4.470;2022-09-27T09:51:48;1.20;;;0.50;;
38972;SDS011;25333;50.762;4.470;2022-09-27T09:54:21;2.47;;;0.65;;
38972;SDS011;25333;50.762;4.470;2022-09-27T09:59:56;1.15;;;0.50;;
38972;SDS011;25333;50.762;4.470;2022-09-27T10:02:31;2.20;;;0.90;;
38972;SDS011;25333;50.762;4.470;2022-09-27T10:05:02;1.98;;;0.55;;
38972;SDS011;25333;50.762;4.470;2022-09-27T10:07:29;2.20;;;0.60;;
38972;SDS011;25333;50.762;4.470;2022-09-27T10:09:58;2.25;;;0.60;;
38972;SDS011;25333;50.762;4.470;2022-09-27T10:12:26;2.17;;;0.77;;
38972;SDS011;25333;50.762;4.470;2022-09-27T10:14:53;5.55;;;1.20;;
38972;SDS011;25333;50.762;4.470;2022-09-27T10:17:22;3.92;;;0.85;;
38972;SDS011;25333;50.762;4.470;2022-09-27T10:19:57;2.93;;;0.73;;
38972;SDS011;25333;50.762;4.470;2022-09-27T10:25:00;3.20;;;0.93;;
38972;SDS011;25333;50.762;4.470;2022-09-27T10:27:36;5.17;;;1.13;;
38972;SDS011;25333;50.762;4.470;2022-09-27T10:30:05;3.47;;;0.70;;
38972;SDS011;25333;50.762;4.470;2022-09-27T10:32:44;2.65;;;0.85;;
38972;SDS011;25333;50.762;4.470;2022-09-27T10:35:30;3.20;;;0.93;;
38972;SDS011;25333;50.762;4.470;2022-09-27T10:40:51;3.90;;;1.05;;
38972;SDS011;25333;50.762;4.470;2022-09-27T10:48:32;3.22;;;1.00;;
38972;SDS011;25333;50.762;4.470;2022-09-27T10:50:59;2.60;;;1.10;;
38972;SDS011;25333;50.762;4.470;2022-09-27T10:53:28;4.85;;;1.48;;
38972;SDS011;25333;50.762;4.470;2022-09-27T10:55:54;9.18;;;1.23;;
38972;SDS011;25333;50.762;4.470;2022-09-27T10:58:28;3.17;;;0.88;;
38972;SDS011;25333;50.762;4.470;2022-09-27T11:00:57;2.60;;;1.10;;
38972;SDS011;25333;50.762;4.470;2022-09-27T11:03:27;4.53;;;1.08;;
38972;SDS011;25333;50.762;4.470;2022-09-27T11:05:56;4.57;;;1.38;;
38972;SDS011;25333;50.762;4.470;2022-09-27T11:08:27;4.40;;;2.20;;
38972;SDS011;25333;50.762;4.470;2022-09-27T11:11:03;7.93;;;3.28;;
38972;SDS011;25333;50.762;4.470;2022-09-27T11:13:44;6.93;;;2.97;;
38972;SDS011;25333;50.762;4.470;2022-09-27T11:28:41;2.00;;;0.60;;
38972;SDS011;25333;50.762;4.470;2022-09-27T11:40:03;2.00;;;0.50;;
38972;SDS011;25333;50.762;4.470;2022-09-27T11:56:39;1.23;;;0.20;;
38972;SDS011;25333;50.762;4.470;2022-09-27T11:59:30;1.05;;;0.10;;
38972;SDS011;25333;50.762;4.470;2022-09-27T12:02:24;3.97;;;0.40;;
38972;SDS011;25333;50.762;4.470;2022-09-27T12:10:25;0.80;;;0.20;;
38972;SDS011;25333;50.762;4.470;2022-09-27T12:12:51;0.73;;;0.40;;
38972;SDS011;25333;50.762;4.470;2022-09-27T12:15:27;2.60;;;0.30;;
38972;SDS011;25333;50.762;4.470;2022-09-27T12:18:01;3.40;;;0.53;;
38972;SDS011;25333;50.762;4.470;2022-09-27T12:20:30;0.82;;;0.30;;
38972;SDS011;25333;50.762;4.470;2022-09-27T12:23:04;1.20;;;0.30;;
38972;SDS011;25333;50.762;4.470;2022-09-27T12:25:36;2.25;;;0.22;;
38972;SDS011;25333;50.762;4.470;2022-09-27T12:30:53;0.95;;;0.10;;
38972;SDS011;25333;50.762;4.470;2022-09-27T12:36:15;1.73;;;0.10;;
38972;SDS011;25333;50.762;4.470;2022-09-27T12:44:36;3.33;;;0.45;;
38972;SDS011;25333;50.762;4.470;2022-09-27T12:49:52;1.37;;;0.43;;
38972;SDS011;25333;50.762;4.470;2022-09-27T12:52:26;1.67;;;0.60;;
38972;SDS011;25333;50.762;4.470;2022-09-27T13:03:29;3.22;;;0.73;;
38972;SDS011;25333;50.762;4.470;2022-09-27T13:11:46;1.23;;;0.38;;
38972;SDS011;25333;50.762;4.470;2022-09-27T13:14:38;2.25;;;0.50;;
38972;SDS011;25333;50.762;4.470;2022-09-27T13:19:57;3.10;;;0.30;;
38972;SDS011;25333;50.762;4.470;2022-09-27T13:24:52;1.67;;;0.30;;
38972;SDS011;25333;50.762;4.470;2022-09-27T13:29:47;2.10;;;0.30;;
38972;SDS011;25333;50.762;4.470;2022-09-27T13:32:23;1.10;;;0.30;;
38972;SDS011;25333;50.762;4.470;2022-09-27T13:34:52;0.40;;;0.20;;
38972;SDS011;25333;50.762;4.470;2022-09-27T13:45:40;1.88;;;0.43;;
38972;SDS011;25333;50.762;4.470;2022-09-27T13:48:15;2.85;;;0.40;;
38972;SDS011;25333;50.762;4.470;2022-09-27T13:50:50;4.40;;;0.70;;
38972;SDS011;25333;50.762;4.470;2022-09-27T13:55:54;1.30;;;0.50;;
38972;SDS011;25333;50.762;4.470;2022-09-27T13:58:29;1.98;;;0.55;;
38972;SDS011;25333;50.762;4.470;2022-09-27T14:01:25;2.60;;;0.70;;
38972;SDS011;25333;50.762;4.470;2022-09-27T14:03:55;3.60;;;0.80;;
38972;SDS011;25333;50.762;4.470;2022-09-27T14:06:31;5.32;;;0.82;;
38972;SDS011;25333;50.762;4.470;2022-09-27T14:09:05;6.43;;;1.35;;
38972;SDS011;25333;50.762;4.470;2022-09-27T14:11:38;3.85;;;0.63;;
38972;SDS011;25333;50.762;4.470;2022-09-27T14:14:06;3.50;;;0.50;;
38972;SDS011;25333;50.762;4.470;2022-09-27T14:16:43;2.90;;;0.70;;
38972;SDS011;25333;50.762;4.470;2022-09-27T14:19:14;3.10;;;0.65;;
38972;SDS011;25333;50.762;4.470;2022-09-27T14:21:46;2.72;;;0.63;;
38972;SDS011;25333;50.762;4.470;2022-09-27T14:24:29;3.15;;;0.80;;
38972;SDS011;25333;50.762;4.470;2022-09-27T14:27:09;2.13;;;0.90;;
38972;SDS011;25333;50.762;4.470;2022-09-27T14:29:43;2.40;;;0.82;;
38972;SDS011;25333;50.762;4.470;2022-09-27T14:32:11;2.83;;;0.85;;
38972;SDS011;25333;50.762;4.470;2022-09-27T14:34:40;1.25;;;0.50;;
38972;SDS011;25333;50.762;4.470;2022-09-27T14:37:12;2.50;;;0.95;;
38972;SDS011;25333;50.762;4.470;2022-09-27T14:39:59;3.90;;;0.90;;
38972;SDS011;25333;50.762;4.470;2022-09-27T14:42:31;10.50;;;0.90;;
38972;SDS011;25333;50.762;4.470;2022-09-27T14:45:05;5.60;;;1.10;;
38972;SDS011;25333;50.762;4.470;2022-09-27T14:47:51;3.45;;;0.90;;
38972;SDS011;25333;50.762;4.470;2022-09-27T14:50:19;3.28;;;0.95;;
38972;SDS011;25333;50.762;4.470;2022-09-27T14:52:52;5.32;;;1.35;;
38972;SDS011;25333;50.762;4.470;2022-09-27T14:55:21;4.85;;;1.20;;
38972;SDS011;25333;50.762;4.470;2022-09-27T14:57:53;4.85;;;0.82;;
38972;SDS011;25333;50.762;4.470;2022-09-27T15:02:48;1.80;;;0.47;;
38972;SDS011;25333;50.762;4.470;2022-09-27T15:05:20;1.55;;;0.50;;
38972;SDS011;25333;50.762;4.470;2022-09-27T15:07:53;2.70;;;0.70;;
38972;SDS011;25333;50.762;4.470;2022-09-27T15:10:22;3.47;;;0.57;;
38972;SDS011;25333;50.762;4.470;2022-09-27T15:12:52;3.95;;;1.30;;
38972;SDS011;25333;50.762;4.470;2022-09-27T15:15:22;2.30;;;0.40;;
38972;SDS011;25333;50.762;4.470;2022-09-27T15:17:50;1.70;;;0.50;;
38972;SDS011;25333;50.762;4.470;2022-09-27T15:20:19;2.10;;;0.33;;
38972;SDS011;25333;50.762;4.470;2022-09-27T15:22:51;3.08;;;0.55;;
38972;SDS011;25333;50.762;4.470;2022-09-27T15:25:23;1.27;;;0.20;;
38972;SDS011;25333;50.762;4.470;2022-09-27T15:27:58;3.47;;;0.63;;
38972;SDS011;25333;50.762;4.470;2022-09-27T15:30:27;2.05;;;0.45;;
38972;SDS011;25333;50.762;4.470;2022-09-27T15:32:59;1.60;;;0.50;;
38972;SDS011;25333;50.762;4.470;2022-09-27T15:35:27;1.80;;;0.40;;
38972;SDS011;25333;50.762;4.470;2022-09-27T15:38:42;3.17;;;0.43;;
38972;SDS011;25333;50.762;4.470;2022-09-27T15:43:20;2.33;;;0.53;;
38972;SDS011;25333;50.762;4.470;2022-09-27T15:45:54;2.20;;;0.50;;
38972;SDS011;25333;50.762;4.470;2022-09-27T15:48:21;1.38;;;0.20;;
38972;SDS011;25333;50.762;4.470;2022-09-27T15:50:48;2.13;;;0.33;;
38972;SDS011;25333;50.762;4.470;2022-09-27T15:55:59;2.20;;;0.47;;
38972;SDS011;25333;50.762;4.470;2022-09-27T15:58:26;2.67;;;0.45;;
38972;SDS011;25333;50.762;4.470;2022-09-27T16:00:53;2.30;;;0.40;;
38972;SDS011;25333;50.762;4.470;2022-09-27T16:03:20;0.90;;;0.30;;
38972;SDS011;25333;50.762;4.470;2022-09-27T16:05:47;1.95;;;0.55;;
38972;SDS011;25333;50.762;4.470;2022-09-27T16:08:12;1.17;;;0.60;;
38972;SDS011;25333;50.762;4.470;2022-09-27T16:10:38;1.43;;;0.20;;
38972;SDS011;25333;50.762;4.470;2022-09-27T16:13:13;3.03;;;0.40;;
38972;SDS011;25333;50.762;4.470;2022-09-27T16:15:38;1.98;;;0.60;;
38972;SDS011;25333;50.762;4.470;2022-09-27T16:18:04;2.78;;;0.90;;
38972;SDS011;25333;50.762;4.470;2022-09-27T16:20:30;2.13;;;0.43;;
38972;SDS011;25333;50.762;4.470;2022-09-27T16:22:56;1.85;;;0.60;;
38972;SDS011;25333;50.762;4.470;2022-09-27T16:25:23;1.45;;;0.50;;
38972;SDS011;25333;50.762;4.470;2022-09-27T16:27:49;2.40;;;0.35;;
38972;SDS011;25333;50.762;4.470;2022-09-27T16:30:16;1.65;;;0.40;;
38972;SDS011;25333;50.762;4.470;2022-09-27T16:32:42;2.00;;;0.40;;
38972;SDS011;25333;50.762;4.470;2022-09-27T16:35:10;0.60;;;0.10;;
38972;SDS011;25333;50.762;4.470;2022-09-27T16:37:37;1.98;;;0.50;;
38972;SDS011;25333;50.762;4.470;2022-09-27T16:40:04;4.07;;;0.32;;
38972;SDS011;25333;50.762;4.470;2022-09-27T16:42:30;2.30;;;0.57;;
38972;SDS011;25333;50.762;4.470;2022-09-27T16:44:56;2.72;;;0.40;;
38972;SDS011;25333;50.762;4.470;2022-09-27T16:47:22;2.00;;;0.40;;
38972;SDS011;25333;50.762;4.470;2022-09-27T16:49:47;1.63;;;0.40;;
38972;SDS011;25333;50.762;4.470;2022-09-27T16:52:32;3.47;;;0.60;;
38972;SDS011;25333;50.762;4.470;2022-09-27T16:54:58;2.83;;;0.53;;
38972;SDS011;25333;50.762;4.470;2022-09-27T16:57:24;1.27;;;0.30;;
38972;SDS011;25333;50.762;4.470;2022-09-27T16:59:53;1.85;;;0.57;;
38972;SDS011;25333;50.762;4.470;2022-09-27T17:02:21;2.20;;;0.40;;
38972;SDS011;25333;50.762;4.470;2022-09-27T17:04:47;3.10;;;0.60;;
38972;SDS011;25333;50.762;4.470;2022-09-27T17:07:13;1.30;;;0.70;;
38972;SDS011;25333;50.762;4.470;2022-09-27T17:09:39;2.37;;;0.90;;
38972;SDS011;25333;50.762;4.470;2022-09-27T17:12:05;2.43;;;0.70;;
38972;SDS011;25333;50.762;4.470;2022-09-27T17:14:30;2.20;;;0.73;;
38972;SDS011;25333;50.762;4.470;2022-09-27T17:16:56;3.90;;;1.00;;
38972;SDS011;25333;50.762;4.470;2022-09-27T17:19:22;2.40;;;0.60;;
38972;SDS011;25333;50.762;4.470;2022-09-27T17:21:48;2.45;;;1.00;;
38972;SDS011;25333;50.762;4.470;2022-09-27T17:24:14;2.60;;;1.00;;
38972;SDS011;25333;50.762;4.470;2022-09-27T17:26:40;2.65;;;1.10;;
38972;SDS011;25333;50.762;4.470;2022-09-27T17:29:06;1.40;;;0.50;;
38972;SDS011;25333;50.762;4.470;2022-09-27T17:31:35;1.83;;;0.80;;
38972;SDS011;25333;50.762;4.470;2022-09-27T17:34:02;1.88;;;0.73;;
38972;SDS011;25333;50.762;4.470;2022-09-27T17:36:29;1.50;;;0.70;;
38972;SDS011;25333;50.762;4.470;2022-09-27T17:39:02;1.70;;;0.75;;
38972;SDS011;25333;50.762;4.470;2022-09-27T17:41:28;1.67;;;0.75;;
38972;SDS011;25333;50.762;4.470;2022-09-27T17:43:55;2.30;;;1.05;;
38972;SDS011;25333;50.762;4.470;2022-09-27T17:46:23;2.10;;;0.80;;
38972;SDS011;25333;50.762;4.470;2022-09-27T17:48:53;3.70;;;1.02;;
38972;SDS011;25333;50.762;4.470;2022-09-27T17:51:39;3.20;;;1.10;;
38972;SDS011;25333;50.762;4.470;2022-09-27T17:54:07;2.80;;;1.30;;
38972;SDS011;25333;50.762;4.470;2022-09-27T17:56:34;9.88;;;3.50;;
38972;SDS011;25333;50.762;4.470;2022-09-27T17:59:04;7.10;;;2.28;;
38972;SDS011;25333;50.762;4.470;2022-09-27T18:01:30;3.90;;;1.48;;
38972;SDS011;25333;50.762;4.470;2022-09-27T18:03:57;2.90;;;1.08;;
38972;SDS011;25333;50.762;4.470;2022-09-27T18:06:25;1.85;;;0.80;;
38972;SDS011;25333;50.762;4.470;2022-09-27T18:08:52;4.03;;;1.70;;
38972;SDS011;25333;50.762;4.470;2022-09-27T18:11:19;4.78;;;1.48;;
38972;SDS011;25333;50.762;4.470;2022-09-27T18:13:51;5.20;;;1.07;;